Morgantown, Indiana
Current Conditions -  °F | °C
As of 5:55 PM on Thursday 20 Nov 2014 (Local Time) from K1II Reporting Station
Clear Clear  
Wind Chill: 28°   Ceiling: Unl
Heat Index: 28°   Visibility: 10mi
Dew Point: 14°   Wind: 3mph
Humidity: 55%   Direction: 270°W
Pressure: 30.19"   Gusts: NA
Location:  39.37°N, 86.26°W
Report Text: K1II 202255Z AUTO 27003KT 10SM CLR M02/M10 A3019 RMK AO2
Loading
Personal Weather Stations






























Interactive Weather Map New forecast layout! Learn more

10-Day Weather Forecast

Advertisements
Track Severe Weather on mobile